This is the latest recevied weather packets stored in our database for station/object K9CMP-13. If no packets are shown the sender has not sent any weather packets the latest 10 day(s).
| Time | Temp. | Humidity | Pressure | Rain* | Wind** | Luminosity | Snow |
|---|---|---|---|---|---|---|---|
| 1787633942 | 12.22° C | 99% | 1020 hPa | 0 mm | - | - | - |
| 1787632141 | 12.78° C | 98% | 1019.6 hPa | 0 mm | - | - | - |
| 1787631242 | 12.78° C | 98% | 1019.6 hPa | 0 mm | - | - | - |
| 1787630642 | 12.78° C | 98% | 1019.6 hPa | 0 mm | - | - | - |
| 1787629742 | 12.78° C | 97% | 1019.3 hPa | 0 mm | - | - | - |
| 1787628242 | 13.33° C | 96% | 1019.3 hPa | 0 mm | - | - | - |
| 1787627342 | 13.33° C | 95% | 1019 hPa | 0 mm | - | - | - |
| 1787625542 | 14.44° C | 93% | 1019 hPa | 0 mm | - | - | - |
| 1787624942 | 14.44° C | 92% | 1019 hPa | 0 mm | - | - | - |
| 1787622242 | 15.56° C | 89% | 1019.3 hPa | 0 mm | - | - | - |
| 1787621642 | 15.56° C | 87% | 1019 hPa | 0 mm | - | - | - |
| 1787619842 | 17.22° C | 80% | 1019 hPa | 0 mm | - | - | - |
| 1787619242 | 17.78° C | 77% | 1018.6 hPa | 0 mm | - | - | - |
| 1787618342 | 19.44° C | 73% | 1018.6 hPa | 0 mm | - | - | - |
| 1787617443 | 20.56° C | 67% | 1018.6 hPa | 0 mm | - | - | - |
| 1787615042 | 21.67° C | 68% | 1018.6 hPa | 0 mm | - | - | - |
| 1787611742 | 22.22° C | 60% | 1018.6 hPa | 0 mm | - | - | - |
| 1787610842 | 22.22° C | 57% | 1018.6 hPa | 0 mm | - | - | - |
| 1787609042 | 23.33° C | 55% | 1019 hPa | 0 mm | - | - | - |
| 1787607542 | 22.78° C | 58% | 1019 hPa | 0 mm | - | - | - |
| 1787606642 | 21.67° C | 61% | 1018.6 hPa | 0 mm | - | - | - |
| 1787604242 | 22.78° C | 59% | 1019 hPa | 0 mm | - | - | - |
| 1787602742 | 22.78° C | 56% | 1019.3 hPa | 0 mm | - | - | - |
| 1787601842 | 22.22° C | 58% | 1019.3 hPa | 0 mm | - | - | - |
| 1787600942 | 22.22° C | 56% | 1019 hPa | 0 mm | - | - | - |
* Rain latest hour (hover to see other rain measurements)
** Current wind speed in m/s (hover to see current wind gust speed)